Time;durP1;ratioP1;P1;durP2;ratioP2;P2;SDS_P1;SDS_P2;PMS_P1;PMS_P2;Temp;Humidity;BMP_temperature;BMP_pressure;BME280_temperature;BME280_humidity;BME280_pressure;Samples;Min_cycle;Max_cycle;Signal;HPM_P1;HPM_P2
2021/11/29 00:01:31;;;;;;;5.63;0.50;;;;;;;4.44;80.25;100416.59;5069490;28;20076;-38
2021/11/29 00:03:59;;;;;;;5.80;1.45;;;;;;;4.43;79.22;100406.63;5070393;28;20044;-35
2021/11/29 00:06:27;;;;;;;5.93;0.75;;;;;;;4.44;78.76;100419.34;5073084;28;20444;-37
2021/11/29 00:08:55;;;;;;;5.68;0.65;;;;;;;4.43;78.58;100420.44;5073410;28;20064;-30
2021/11/29 00:11:24;;;;;;;4.47;0.70;;;;;;;4.43;77.75;100401.09;5062172;28;20048;-37
2021/11/29 00:13:52;;;;;;;2.42;0.93;;;;;;;4.42;77.47;100416.03;5073978;28;20054;-32
2021/11/29 00:16:19;;;;;;;6.25;1.02;;;;;;;4.43;77.20;100412.16;5073045;28;20044;-32
2021/11/29 00:18:47;;;;;;;6.60;0.93;;;;;;;4.48;77.14;100408.59;5073857;28;20048;-35
2021/11/29 00:21:15;;;;;;;6.00;0.90;;;;;;;4.50;76.61;100417.44;5073760;28;20063;-33
2021/11/29 00:23:45;;;;;;;6.32;0.80;;;;;;;4.52;76.23;100412.50;5073068;28;20086;-34
2021/11/29 00:26:13;;;;;;;6.22;1.13;;;;;;;4.54;75.99;100406.69;5073527;28;20068;-35
2021/11/29 00:28:44;;;;;;;4.30;0.63;;;;;;;4.55;75.12;100417.47;5073814;28;20040;-31
2021/11/29 00:31:12;;;;;;;4.35;0.50;;;;;;;4.59;75.71;100413.06;5073037;28;20051;-35
2021/11/29 00:33:41;;;;;;;7.25;1.05;;;;;;;4.64;76.35;100403.94;5071857;28;20056;-35
2021/11/29 00:36:09;;;;;;;11.77;1.35;;;;;;;4.68;78.39;100410.59;5073001;28;20053;-38
2021/11/29 00:38:38;;;;;;;5.00;0.73;;;;;;;4.69;79.89;100429.69;5073060;28;20047;-34
2021/11/29 00:41:05;;;;;;;6.88;0.88;;;;;;;4.69;82.41;100435.22;5063187;28;20508;-37
2021/11/29 00:43:33;;;;;;;6.43;0.88;;;;;;;4.61;83.91;100432.13;5072724;28;20048;-33
2021/11/29 00:46:02;;;;;;;6.82;1.10;;;;;;;4.51;84.46;100424.63;5073672;28;20054;-32
2021/11/29 00:48:31;;;;;;;7.88;1.02;;;;;;;4.43;85.01;100425.13;5073205;28;20044;-37
2021/11/29 00:50:59;;;;;;;7.45;0.90;;;;;;;4.36;85.66;100427.34;5069145;28;20052;-35
2021/11/29 00:53:27;;;;;;;5.22;0.98;;;;;;;4.27;86.00;100404.91;5072145;28;20052;-35
2021/11/29 00:55:54;;;;;;;7.55;0.70;;;;;;;4.23;84.77;100416.75;5073022;28;20481;-37
2021/11/29 00:58:22;;;;;;;4.38;1.00;;;;;;;4.20;83.44;100418.13;5072905;28;20091;-32
2021/11/29 01:00:53;;;;;;;6.10;0.75;;;;;;;4.20;81.95;100412.59;5072663;28;20501;-30
2021/11/29 01:03:22;;;;;;;3.40;0.60;;;;;;;4.20;80.59;100411.78;5072974;28;20045;-35
2021/11/29 01:05:50;;;;;;;5.22;0.80;;;;;;;4.24;78.97;100419.25;5070642;28;20437;-36
2021/11/29 01:08:18;;;;;;;5.47;0.73;;;;;;;4.26;78.54;100414.28;5072712;28;20469;-38
2021/11/29 01:10:45;;;;;;;3.80;0.80;;;;;;;4.28;78.76;100423.16;5072994;28;20074;-32
2021/11/29 01:13:13;;;;;;;5.25;0.88;;;;;;;4.30;80.36;100436.69;5072238;28;20475;-30
2021/11/29 01:15:43;;;;;;;6.43;0.90;;;;;;;4.32;80.86;100429.81;5072331;28;20497;-34
2021/11/29 01:18:11;;;;;;;4.25;0.70;;;;;;;4.31;81.21;100433.66;5072514;28;20143;-33
2021/11/29 01:20:43;;;;;;;6.78;0.95;;;;;;;4.29;81.19;100437.78;5072274;28;20094;-37
2021/11/29 01:23:13;;;;;;;5.75;0.80;;;;;;;4.28;80.27;100436.94;5072565;28;20111;-35
2021/11/29 01:25:41;;;;;;;4.43;0.73;;;;;;;4.28;79.29;100442.47;5071943;28;20491;-31
2021/11/29 01:28:09;;;;;;;3.42;0.70;;;;;;;4.30;79.63;100445.81;5072591;28;20051;-32
2021/11/29 01:30:38;;;;;;;5.28;0.77;;;;;;;4.36;79.12;100435.63;5068744;28;20067;-36
2021/11/29 01:33:06;;;;;;;4.60;0.90;;;;;;;4.41;78.64;100438.38;5072031;28;20045;-32
2021/11/29 01:35:35;;;;;;;7.50;1.10;;;;;;;4.44;78.45;100443.38;5072263;28;20056;-35
2021/11/29 01:38:05;;;;;;;3.00;0.65;;;;;;;4.46;78.42;100439.25;5072610;28;20048;-36
2021/11/29 01:40:33;;;;;;;8.30;0.88;;;;;;;4.49;78.43;100437.88;5071412;28;20036;-39
2021/11/29 01:43:03;;;;;;;5.72;1.35;;;;;;;4.54;77.69;100445.38;5072276;28;20049;-32
2021/11/29 01:45:33;;;;;;;9.95;1.35;;;;;;;4.60;79.78;100447.03;5071753;28;20040;-32
2021/11/29 01:48:01;;;;;;;8.35;1.20;;;;;;;4.65;83.09;100456.19;5071840;28;20044;-30
2021/11/29 01:50:29;;;;;;;7.78;1.10;;;;;;;4.67;84.20;100464.22;5071887;28;20143;-36
2021/11/29 01:52:56;;;;;;;9.45;0.95;;;;;;;4.64;85.45;100459.22;5071997;28;20048;-39
2021/11/29 01:55:26;;;;;;;6.63;1.02;;;;;;;4.62;85.64;100455.88;5071180;28;20045;-31
2021/11/29 01:57:54;;;;;;;5.70;1.00;;;;;;;4.57;86.22;100464.19;5071933;28;20412;-34
2021/11/29 02:00:25;;;;;;;9.77;1.45;;;;;;;4.48;86.70;100464.69;5071770;28;20049;-30
2021/11/29 02:02:55;;;;;;;4.22;0.88;;;;;;;4.41;86.89;100466.84;5071167;28;20055;-33
2021/11/29 02:05:24;;;;;;;10.35;1.13;;;;;;;4.35;86.84;100464.34;5071741;28;20485;-31
2021/11/29 02:07:52;;;;;;;6.47;0.70;;;;;;;4.31;87.29;100460.44;5071232;28;20564;-28
2021/11/29 02:10:22;;;;;;;9.10;1.15;;;;;;;4.27;87.20;100467.59;5060010;28;20044;-35
2021/11/29 02:12:52;;;;;;;6.47;1.40;;;;;;;4.25;86.17;100461.50;5071660;28;20048;-34
2021/11/29 02:15:21;;;;;;;6.85;0.60;;;;;;;4.26;85.06;100463.16;5070985;28;20067;-34
2021/11/29 02:17:49;;;;;;;3.72;0.50;;;;;;;4.29;83.45;100465.41;5071509;28;20109;-38
2021/11/29 02:20:19;;;;;;;4.63;1.00;;;;;;;4.34;82.83;100470.97;5071573;28;20036;-34
2021/11/29 02:22:50;;;;;;;3.13;0.60;;;;;;;4.36;82.75;100475.13;5070749;28;20047;-32
2021/11/29 02:25:19;;;;;;;4.05;0.82;;;;;;;4.38;82.90;100470.16;5071338;28;20040;-31
2021/11/29 02:27:49;;;;;;;6.93;0.82;;;;;;;4.39;83.42;100474.59;5070634;28;20072;-34
2021/11/29 02:30:19;;;;;;;4.72;0.70;;;;;;;4.39;85.05;100482.88;5070701;28;20040;-36
2021/11/29 02:32:47;;;;;;;8.02;1.10;;;;;;;4.40;85.67;100498.31;5071129;28;20151;-32
2021/11/29 02:35:15;;;;;;;8.52;1.40;;;;;;;4.40;88.23;100498.31;5071128;28;20044;-30
2021/11/29 02:37:43;;;;;;;6.65;0.88;;;;;;;4.39;89.99;100502.22;5070640;28;20037;-38
2021/11/29 02:40:12;;;;;;;4.57;0.60;;;;;;;4.34;89.91;100491.13;5071498;28;20055;-31
2021/11/29 02:42:40;;;;;;;7.13;1.00;;;;;;;4.31;90.11;100501.88;5070946;28;20497;-38
2021/11/29 02:45:09;;;;;;;3.67;0.50;;;;;;;4.26;90.61;100479.75;5071003;28;20484;-37
2021/11/29 02:47:36;;;;;;;4.00;0.63;;;;;;;4.23;90.61;100478.34;5070665;28;20104;-37
2021/11/29 02:50:05;;;;;;;5.30;0.50;;;;;;;4.18;89.94;100491.31;5070739;28;20371;-31
2021/11/29 02:52:33;;;;;;;4.13;0.40;;;;;;;4.15;89.66;100495.44;5070807;28;20045;-35
2021/11/29 02:55:01;;;;;;;7.57;0.77;;;;;;;4.13;90.52;100498.44;5071052;28;20051;-37
2021/11/29 02:57:30;;;;;;;5.75;0.98;;;;;;;4.15;91.83;100496.25;5070335;28;20136;-39
2021/11/29 02:59:58;;;;;;;7.40;0.80;;;;;;;4.11;93.06;100492.34;5070861;28;20053;-39
2021/11/29 03:02:31;;;;;;;7.28;0.65;;;;;;;4.08;93.65;100484.59;5070663;28;20405;-32
2021/11/29 03:05:00;;;;;;;3.17;0.47;;;;;;;4.05;93.85;100482.38;5070797;28;20056;-35
2021/11/29 03:07:28;;;;;;;4.03;0.65;;;;;;;4.03;93.76;100481.81;5070875;28;20490;-30
2021/11/29 03:09:56;;;;;;;5.75;0.90;;;;;;;4.02;93.94;100487.59;5070972;28;20087;-30
2021/11/29 03:12:24;;;;;;;5.90;0.80;;;;;;;4.04;94.74;100482.63;5070705;28;20127;-31
2021/11/29 03:14:53;;;;;;;3.58;0.63;;;;;;;4.10;95.96;100482.41;5070624;28;20041;-31
2021/11/29 03:17:21;;;;;;;6.53;0.80;;;;;;;4.14;96.13;100479.97;5070726;28;20040;-36
2021/11/29 03:19:49;;;;;;;7.50;1.52;;;;;;;4.19;95.45;100471.72;5070124;28;20043;-36
2021/11/29 03:22:16;;;;;;;8.40;0.93;;;;;;;4.25;95.02;100467.88;5070683;28;20037;-31
2021/11/29 03:24:46;;;;;;;9.35;0.95;;;;;;;4.31;94.97;100475.09;5070616;28;20036;-33
2021/11/29 03:27:15;;;;;;;10.07;1.33;;;;;;;4.36;94.99;100490.88;5069889;28;20493;-35
2021/11/29 03:29:47;;;;;;;7.55;1.02;;;;;;;4.42;95.37;100482.31;5070759;28;20119;-33
2021/11/29 03:32:18;;;;;;;6.87;1.10;;;;;;;4.49;95.09;100480.16;5070401;28;20055;-33
2021/11/29 03:34:47;;;;;;;7.18;1.60;;;;;;;4.51;93.48;100490.94;5067454;28;20052;-36
2021/11/29 03:37:14;;;;;;;5.43;1.17;;;;;;;4.55;91.76;100488.47;5070709;28;20059;-30
2021/11/29 03:39:42;;;;;;;6.72;0.93;;;;;;;4.57;91.46;100498.16;5071264;28;20489;-34
2021/11/29 03:42:11;;;;;;;6.47;1.23;;;;;;;4.60;90.86;100491.25;5074579;28;20559;-33
2021/11/29 03:44:39;;;;;;;5.60;0.77;;;;;;;4.59;89.96;100501.50;5074432;28;20059;-32
2021/11/29 03:47:08;;;;;;;6.00;1.02;;;;;;;4.59;89.39;100495.13;5074103;28;20055;-37
2021/11/29 03:49:38;;;;;;;7.32;0.70;;;;;;;4.59;89.11;100495.13;5074233;28;20060;-37
2021/11/29 03:52:05;;;;;;;6.60;1.25;;;;;;;4.60;89.82;100491.25;5074380;28;20050;-32
2021/11/29 03:54:33;;;;;;;5.82;0.90;;;;;;;4.62;90.45;100478.84;5073554;28;20060;-31
2021/11/29 03:57:01;;;;;;;6.10;0.77;;;;;;;4.62;90.92;100483.53;5074196;28;20045;-36
2021/11/29 03:59:29;;;;;;;4.35;0.70;;;;;;;4.62;90.81;100483.53;5074359;28;20056;-33
2021/11/29 04:01:57;;;;;;;12.00;1.33;;;;;;;4.62;91.19;100495.41;5073634;28;20107;-38
2021/11/29 04:04:25;;;;;;;5.65;0.80;;;;;;;4.63;91.29;100479.66;5074120;28;20074;-32
2021/11/29 04:06:54;;;;;;;6.20;0.77;;;;;;;4.66;91.76;100482.72;5073879;28;20040;-35
2021/11/29 04:09:21;;;;;;;10.52;1.20;;;;;;;4.70;91.82;100499.59;5073528;28;20048;-33
2021/11/29 04:11:49;;;;;;;5.50;0.82;;;;;;;4.73;92.33;100510.97;5073798;28;20140;-35
2021/11/29 04:14:17;;;;;;;4.82;0.93;;;;;;;4.74;92.95;100500.72;5073299;28;20040;-34
2021/11/29 04:16:45;;;;;;;7.47;0.90;;;;;;;4.69;93.39;100509.00;5073853;28;20048;-32
2021/11/29 04:19:13;;;;;;;8.30;0.80;;;;;;;4.61;94.27;100498.44;5073824;28;20047;-36
2021/11/29 04:21:41;;;;;;;6.53;0.80;;;;;;;4.55;95.16;100505.06;5073634;28;20048;-38
2021/11/29 04:24:11;;;;;;;5.70;1.05;;;;;;;4.50;96.66;100503.94;5073666;28;20058;-35
2021/11/29 04:26:40;;;;;;;7.07;0.82;;;;;;;4.48;98.20;100503.34;5073614;28;20485;-33
2021/11/29 04:29:17;;;;;;;6.70;0.65;;;;;;;4.47;98.80;100509.16;5071721;28;20481;-33
2021/11/29 04:31:45;;;;;;;4.38;0.80;;;;;;;4.48;98.89;100508.06;5071075;28;20043;-31
2021/11/29 04:34:13;;;;;;;7.28;0.98;;;;;;;4.50;98.80;100519.66;5072287;28;20052;-36
2021/11/29 04:36:41;;;;;;;6.43;0.68;;;;;;;4.52;99.70;100514.72;5072923;28;20059;-36
2021/11/29 04:39:10;;;;;;;6.72;1.00;;;;;;;4.55;100.00;100516.94;5073704;28;20056;-38
2021/11/29 04:41:38;;;;;;;3.97;0.73;;;;;;;4.54;100.00;100504.22;5073084;28;20111;-37
2021/11/29 04:44:07;;;;;;;8.95;0.93;;;;;;;4.51;100.00;100515.81;5072938;28;20067;-32
2021/11/29 04:46:35;;;;;;;4.93;0.65;;;;;;;4.50;100.00;100522.44;5073020;28;20138;-38
2021/11/29 04:49:04;;;;;;;6.70;0.85;;;;;;;4.52;100.00;100527.69;5073591;28;20131;-34
2021/11/29 04:51:31;;;;;;;5.35;0.70;;;;;;;4.60;100.00;100524.41;5071794;28;20098;-35
2021/11/29 04:53:59;;;;;;;9.52;0.93;;;;;;;4.64;100.00;100520.84;5073294;28;20482;-33
2021/11/29 04:56:29;;;;;;;8.93;1.10;;;;;;;4.68;100.00;100515.63;5072509;28;20602;-35
2021/11/29 04:58:57;;;;;;;8.90;1.30;;;;;;;4.73;100.00;100526.72;5072793;28;20056;-33
2021/11/29 05:01:25;;;;;;;8.93;1.40;;;;;;;4.74;100.00;100533.91;5072763;28;20120;-34
2021/11/29 05:03:53;;;;;;;4.47;0.60;;;;;;;4.73;100.00;100524.78;5072604;28;20136;-35
2021/11/29 05:06:21;;;;;;;11.25;1.20;;;;;;;4.72;100.00;100520.34;5072940;28;20044;-34
2021/11/29 05:08:49;;;;;;;8.55;1.42;;;;;;;4.75;100.00;100516.22;5072738;28;20510;-30
2021/11/29 05:11:17;;;;;;;6.10;1.05;;;;;;;4.79;100.00;100506.28;5072138;28;20052;-32
2021/11/29 05:13:46;;;;;;;8.35;1.00;;;;;;;4.85;100.00;100502.44;5072859;28;20055;-33
2021/11/29 05:16:14;;;;;;;11.38;1.80;;;;;;;4.91;100.00;100519.88;5072558;28;20548;-37
2021/11/29 05:18:43;;;;;;;10.75;1.20;;;;;;;4.99;100.00;100520.19;5072311;28;20055;-33
2021/11/29 05:21:10;;;;;;;11.18;1.25;;;;;;;5.03;100.00;100528.75;5072578;28;20489;-32
2021/11/29 05:23:38;;;;;;;10.25;1.48;;;;;;;5.05;100.00;100529.31;5072529;28;20050;-33
2021/11/29 05:26:06;;;;;;;8.52;1.45;;;;;;;5.11;100.00;100531.00;5071807;28;20052;-34
2021/11/29 05:28:34;;;;;;;7.88;0.95;;;;;;;5.18;100.00;100562.03;5072686;28;20079;-38
2021/11/29 05:31:03;;;;;;;9.85;1.00;;;;;;;5.22;100.00;100554.81;5072658;28;20151;-31
2021/11/29 05:33:31;;;;;;;7.03;0.85;;;;;;;5.19;100.00;100561.75;5070259;28;20055;-28
2021/11/29 05:35:59;;;;;;;7.60;1.27;;;;;;;5.16;100.00;100570.59;5072369;28;20040;-31
2021/11/29 05:38:28;;;;;;;8.63;1.30;;;;;;;5.09;100.00;100569.16;5071934;28;20076;-36
2021/11/29 05:40:55;;;;;;;5.32;0.60;;;;;;;5.03;100.00;100573.00;5072037;28;20052;-30
2021/11/29 05:43:23;;;;;;;6.32;1.00;;;;;;;4.98;100.00;100565.53;5071954;28;20048;-30
2021/11/29 05:45:51;;;;;;;11.25;1.08;;;;;;;4.96;100.00;100556.69;5071610;28;20051;-34
2021/11/29 05:48:20;;;;;;;7.32;1.17;;;;;;;4.96;100.00;100570.50;5071898;28;20037;-29
2021/11/29 05:50:48;;;;;;;7.00;1.13;;;;;;;4.98;100.00;100564.72;5071017;28;20484;-27
2021/11/29 05:53:16;;;;;;;5.65;0.90;;;;;;;5.00;100.00;100565.25;5071234;28;20059;-31
2021/11/29 05:55:44;;;;;;;6.50;1.00;;;;;;;5.02;100.00;100569.41;5072083;28;20063;-32
2021/11/29 05:58:12;;;;;;;6.10;0.68;;;;;;;5.04;100.00;100574.66;5071885;28;20055;-35
2021/11/29 06:00:40;;;;;;;5.07;1.08;;;;;;;5.06;100.00;100587.13;5071317;28;20044;-33
2021/11/29 06:03:09;;;;;;;6.57;0.98;;;;;;;5.09;100.00;100589.34;5059557;28;20052;-32
2021/11/29 06:05:39;;;;;;;6.97;0.95;;;;;;;5.12;100.00;100594.34;5071417;28;20123;-31
2021/11/29 06:08:06;;;;;;;4.15;0.65;;;;;;;5.13;100.00;100589.66;5070812;28;20564;-31
2021/11/29 06:10:34;;;;;;;3.83;0.70;;;;;;;5.13;100.00;100601.56;5071588;28;20044;-35
2021/11/29 06:13:02;;;;;;;6.80;1.10;;;;;;;5.15;100.00;100593.81;5071294;28;20060;-33
2021/11/29 06:15:30;;;;;;;6.45;0.80;;;;;;;5.18;100.00;100604.34;5069711;28;20053;-33
2021/11/29 06:17:57;;;;;;;6.18;1.10;;;;;;;5.24;100.00;100601.59;5071139;28;20039;-36
2021/11/29 06:20:26;;;;;;;5.90;1.20;;;;;;;5.28;100.00;100613.78;5071410;28;20452;-34
2021/11/29 06:22:56;;;;;;;4.85;0.70;;;;;;;5.29;100.00;100605.22;5070699;28;20051;-34
2021/11/29 06:25:24;;;;;;;8.88;0.85;;;;;;;5.30;100.00;100606.03;5067625;28;20059;-37
2021/11/29 06:27:52;;;;;;;6.20;0.77;;;;;;;5.28;100.00;100602.72;5070858;28;20052;-33
2021/11/29 06:30:20;;;;;;;7.32;1.50;;;;;;;5.27;100.00;100615.72;5071131;28;20041;-37
2021/11/29 06:32:49;;;;;;;4.82;0.80;;;;;;;5.25;100.00;100615.16;5060399;28;20481;-34
2021/11/29 06:35:17;;;;;;;7.85;0.90;;;;;;;5.26;100.00;100610.44;5070783;28;20040;-37
2021/11/29 06:37:49;;;;;;;3.15;0.70;;;;;;;5.30;100.00;100615.19;5071250;28;20047;-33
2021/11/29 06:40:18;;;;;;;6.68;0.80;;;;;;;5.34;100.00;100621.00;5071173;28;20048;-36
2021/11/29 06:42:46;;;;;;;9.18;1.10;;;;;;;5.36;100.00;100649.25;5070545;28;20397;-35
2021/11/29 06:45:19;;;;;;;6.25;0.80;;;;;;;5.37;100.00;100653.66;5070934;28;20099;-35
2021/11/29 06:47:46;;;;;;;6.47;0.80;;;;;;;5.27;100.00;100662.75;5071497;28;20064;-35
2021/11/29 06:50:14;;;;;;;3.88;0.60;;;;;;;5.16;100.00;100667.41;5070522;28;20048;-36
2021/11/29 06:52:43;;;;;;;5.90;0.70;;;;;;;5.08;100.00;100656.84;5071067;28;20054;-35
2021/11/29 06:55:14;;;;;;;4.55;0.70;;;;;;;5.03;100.00;100662.31;5070896;28;20045;-33
2021/11/29 06:57:43;;;;;;;5.78;0.70;;;;;;;4.99;100.00;100664.00;5070294;28;20052;-35
2021/11/29 07:00:16;;;;;;;6.38;0.75;;;;;;;4.97;100.00;100674.47;5070828;28;20052;-36
2021/11/29 07:02:44;;;;;;;5.38;0.60;;;;;;;4.88;100.00;100672.47;5070780;28;20057;-29
2021/11/29 07:05:13;;;;;;;7.03;0.60;;;;;;;4.74;100.00;100686.75;5070119;28;20532;-32
2021/11/29 07:07:41;;;;;;;4.18;0.70;;;;;;;4.67;100.00;100679.78;5070917;28;20058;-32
2021/11/29 07:10:10;;;;;;;9.50;0.70;;;;;;;4.61;100.00;100675.28;5069971;28;20040;-32
2021/11/29 07:12:40;;;;;;;7.15;0.75;;;;;;;4.61;100.00;100670.59;5070956;28;20135;-36
2021/11/29 07:15:10;;;;;;;6.85;0.90;;;;;;;4.65;100.00;100670.91;5070531;28;20281;-36
2021/11/29 07:17:38;;;;;;;7.63;0.80;;;;;;;4.66;100.00;100672.56;5061823;28;20134;-36
2021/11/29 07:20:07;;;;;;;4.20;0.65;;;;;;;4.69;100.00;100680.34;5070164;28;20040;-33
2021/11/29 07:22:35;;;;;;;3.00;0.50;;;;;;;4.69;100.00;100680.34;5069662;28;20049;-34
2021/11/29 07:25:04;;;;;;;4.60;0.60;;;;;;;4.69;100.00;100681.19;5070227;28;20049;-34
2021/11/29 07:27:33;;;;;;;4.35;0.50;;;;;;;4.71;100.00;100686.44;5067448;28;20048;-33
2021/11/29 07:30:04;;;;;;;7.03;0.45;;;;;;;4.71;100.00;100690.03;5070694;28;20479;-31
2021/11/29 07:32:33;;;;;;;7.07;0.90;;;;;;;4.72;100.00;100693.63;5069108;28;20044;-35
2021/11/29 07:35:01;;;;;;;7.93;0.82;;;;;;;4.76;100.00;100706.66;5070752;28;20063;-37
2021/11/29 07:37:29;;;;;;;7.47;1.13;;;;;;;4.79;100.00;100713.59;5070703;28;20181;-35
2021/11/29 07:39:57;;;;;;;4.22;0.63;;;;;;;4.80;100.00;100707.78;5068740;28;20037;-29
2021/11/29 07:42:25;;;;;;;4.03;0.57;;;;;;;4.82;100.00;100711.13;5070224;28;20056;-33
2021/11/29 07:44:54;;;;;;;6.03;1.02;;;;;;;4.85;100.00;100712.53;5070436;28;20050;-34
2021/11/29 07:47:22;;;;;;;6.40;0.82;;;;;;;4.87;100.00;100715.03;5069706;28;20128;-33
2021/11/29 07:49:51;;;;;;;3.88;0.65;;;;;;;4.88;100.00;100714.75;5070311;28;20048;-34
2021/11/29 07:52:19;;;;;;;3.00;0.70;;;;;;;4.88;100.00;100723.06;5070200;28;20048;-31
2021/11/29 07:54:47;;;;;;;3.65;0.68;;;;;;;4.89;100.00;100724.72;5070499;28;20045;-32
2021/11/29 07:57:16;;;;;;;3.40;0.60;;;;;;;4.90;100.00;100722.78;5070457;28;20056;-34
2021/11/29 07:59:46;;;;;;;2.25;0.50;;;;;;;4.93;100.00;100719.50;5069663;28;20053;-28
2021/11/29 08:02:18;;;;;;;2.90;0.40;;;;;;;4.97;100.00;100727.00;5070196;28;20056;-30
2021/11/29 08:04:47;;;;;;;1.15;0.30;;;;;;;5.02;100.00;100727.03;5070510;28;20147;-32
2021/11/29 08:07:17;;;;;;;2.78;0.30;;;;;;;5.09;100.00;100721.28;5069974;28;20520;-35
2021/11/29 08:09:47;;;;;;;5.10;0.63;;;;;;;5.15;100.00;100732.13;5070248;28;20044;-32
2021/11/29 08:12:15;;;;;;;2.25;0.40;;;;;;;5.24;100.00;100740.72;5070228;28;20049;-34
2021/11/29 08:14:43;;;;;;;1.42;0.30;;;;;;;5.37;100.00;100743.03;5069501;28;20143;-31
2021/11/29 08:17:11;;;;;;;2.08;0.30;;;;;;;5.50;100.00;100742.56;5069962;28;20048;-40
2021/11/29 08:19:39;;;;;;;1.90;0.30;;;;;;;5.63;100.00;100752.28;5061204;28;20044;-35
2021/11/29 08:22:06;;;;;;;0.90;0.30;;;;;;;5.72;100.00;100759.00;5069744;28;20040;-33
2021/11/29 08:24:37;;;;;;;1.15;0.20;;;;;;;5.80;100.00;100768.72;5070032;28;20127;-28
2021/11/29 08:27:05;;;;;;;2.38;0.30;;;;;;;5.84;100.00;100770.66;5072349;28;20091;-33
2021/11/29 08:29:33;;;;;;;5.18;0.52;;;;;;;5.91;100.00;100764.94;5069384;28;20041;-28
2021/11/29 08:32:03;;;;;;;2.30;0.38;;;;;;;6.03;100.00;100781.31;5074038;28;20113;-37
2021/11/29 08:34:31;;;;;;;4.22;0.50;;;;;;;6.19;100.00;100780.28;5072449;28;20048;-31
2021/11/29 08:36:59;;;;;;;1.40;0.50;;;;;;;6.40;100.00;100778.38;5073606;28;20432;-33
2021/11/29 08:39:27;;;;;;;5.72;0.60;;;;;;;6.66;100.00;100784.81;5073053;28;20048;-36
2021/11/29 08:41:56;;;;;;;2.60;0.40;;;;;;;6.95;100.00;100794.28;5072915;28;20079;-32
2021/11/29 08:44:24;;;;;;;3.58;0.70;;;;;;;7.31;100.00;100788.69;5073431;28;20051;-34
2021/11/29 08:46:51;;;;;;;4.30;0.50;;;;;;;7.69;100.00;100799.19;5073588;28;20048;-35
2021/11/29 08:49:21;;;;;;;4.10;0.55;;;;;;;8.06;100.00;100797.94;5071637;28;20115;-31
2021/11/29 08:51:49;;;;;;;4.40;0.90;;;;;;;8.44;100.00;100804.75;5073150;28;20088;-32
2021/11/29 08:54:17;;;;;;;4.53;0.70;;;;;;;8.92;100.00;100800.28;5072835;28;20082;-36
2021/11/29 08:56:46;;;;;;;2.47;0.50;;;;;;;9.39;100.00;100807.13;5072804;28;20139;-32
2021/11/29 08:59:16;;;;;;;4.90;0.85;;;;;;;9.90;100.00;100804.63;5073112;28;20056;-37
2021/11/29 09:01:44;;;;;;;5.93;0.60;;;;;;;10.38;100.00;100801.84;5072948;28;20059;-40
2021/11/29 09:04:13;;;;;;;2.05;0.50;;;;;;;10.86;100.00;100805.31;5072935;28;20414;-33
2021/11/29 09:06:41;;;;;;;3.80;0.50;;;;;;;11.33;100.00;100810.72;5073080;28;20048;-34
2021/11/29 09:09:11;;;;;;;3.50;0.52;;;;;;;11.82;98.25;100817.66;5072506;28;20080;-36
2021/11/29 09:11:39;;;;;;;4.20;0.75;;;;;;;12.33;95.23;100816.66;5072640;28;20052;-35
2021/11/29 09:14:07;;;;;;;3.92;1.08;;;;;;;12.49;91.17;100820.78;5072772;28;20044;-34
2021/11/29 09:16:36;;;;;;;3.97;0.75;;;;;;;12.28;87.88;100833.53;5072634;28;20074;-36
2021/11/29 09:19:04;;;;;;;2.60;0.60;;;;;;;11.94;88.03;100832.00;5072423;28;20144;-35
2021/11/29 09:21:33;;;;;;;3.92;0.60;;;;;;;11.92;88.68;100831.47;5072254;28;20139;-38
2021/11/29 09:24:01;;;;;;;2.38;0.77;;;;;;;12.16;87.82;100830.44;5072134;28;20076;-32
2021/11/29 09:26:29;;;;;;;4.43;0.70;;;;;;;12.34;85.66;100841.53;5072350;28;20070;-37
2021/11/29 09:28:57;;;;;;;2.63;0.70;;;;;;;12.52;83.86;100838.94;5072742;28;20056;-34
2021/11/29 09:31:26;;;;;;;2.45;1.00;;;;;;;12.73;83.23;100845.75;5071439;28;20076;-37
2021/11/29 09:33:55;;;;;;;2.70;0.60;;;;;;;12.98;81.52;100847.13;5072405;28;20489;-32
2021/11/29 09:36:23;;;;;;;2.00;0.60;;;;;;;13.19;80.90;100856.72;5072231;28;20060;-37
2021/11/29 09:38:51;;;;;;;1.30;0.50;;;;;;;13.47;79.39;100859.41;5071627;28;20130;-35
2021/11/29 09:41:21;;;;;;;2.40;0.60;;;;;;;13.72;77.46;100859.59;5071819;28;20045;-34
2021/11/29 09:43:49;;;;;;;1.60;0.38;;;;;;;13.96;76.36;100864.88;5072046;28;20040;-38
2021/11/29 09:46:17;;;;;;;1.60;0.47;;;;;;;14.19;74.85;100868.41;5071449;28;20308;-29
2021/11/29 09:48:45;;;;;;;1.40;0.40;;;;;;;14.41;73.08;100862.78;5071354;28;20076;-33
2021/11/29 09:51:31;;;;;;;1.77;0.52;;;;;;;14.67;71.78;100868.47;5072054;28;20048;-32
2021/11/29 09:53:59;;;;;;;3.00;0.73;;;;;;;14.93;70.78;100870.53;5071572;28;20387;-34
2021/11/29 09:56:27;;;;;;;2.35;0.75;;;;;;;15.06;69.71;100870.34;5071793;28;20052;-34
2021/11/29 09:58:55;;;;;;;4.10;0.80;;;;;;;15.26;69.28;100876.50;5071112;28;20048;-35
2021/11/29 10:01:23;;;;;;;2.55;0.70;;;;;;;15.40;68.46;100875.16;5071512;28;20075;-33
2021/11/29 10:04:01;;;;;;;3.10;0.70;;;;;;;15.25;66.90;100883.25;5071982;28;20055;-32
2021/11/29 10:06:29;;;;;;;2.00;0.60;;;;;;;14.93;67.15;100890.19;5071045;28;20098;-34
2021/11/29 10:08:59;;;;;;;1.77;0.68;;;;;;;14.80;67.67;100892.78;5071484;28;20044;-38
2021/11/29 10:11:30;;;;;;;1.48;0.50;;;;;;;14.60;68.10;100893.38;5071356;28;20485;-41
2021/11/29 10:14:04;;;;;;;2.08;0.40;;;;;;;14.32;68.55;100891.94;5071010;28;20131;-36
2021/11/29 10:16:35;;;;;;;2.00;0.40;;;;;;;14.16;69.41;100890.72;5060348;28;20052;-36
2021/11/29 10:19:05;;;;;;;1.23;0.25;;;;;;;14.15;69.63;100889.88;5071581;28;20106;-31
2021/11/29 10:21:34;;;;;;;2.25;0.50;;;;;;;14.25;69.22;100885.97;5069315;28;20390;-32
2021/11/29 10:24:11;;;;;;;2.28;0.60;;;;;;;14.41;68.57;100881.59;5071365;28;20057;-30
2021/11/29 10:26:41;;;;;;;1.70;0.30;;;;;;;14.57;67.72;100882.00;5071450;28;20045;-31
2021/11/29 10:29:13;;;;;;;2.00;0.55;;;;;;;14.68;66.41;100877.72;5070892;28;20044;-35
2021/11/29 10:31:44;;;;;;;2.25;0.50;;;;;;;14.82;66.00;100870.81;5071347;28;20055;-37
2021/11/29 10:34:14;;;;;;;1.48;0.40;;;;;;;14.96;65.79;100873.50;5065918;28;20497;-34
2021/11/29 10:36:44;;;;;;;1.38;0.50;;;;;;;15.05;65.38;100871.50;5071268;28;20056;-32
2021/11/29 10:39:15;;;;;;;1.60;0.40;;;;;;;15.08;64.80;100870.84;5071142;28;20049;-31
2021/11/29 10:41:45;;;;;;;1.50;0.40;;;;;;;15.13;64.92;100875.50;5070601;28;20055;-39
2021/11/29 10:44:17;;;;;;;2.78;0.50;;;;;;;15.18;65.27;100875.34;5071028;28;20052;-35
2021/11/29 10:46:46;;;;;;;1.15;0.30;;;;;;;15.22;64.70;100890.38;5071046;28;20052;-35
2021/11/29 10:49:17;;;;;;;1.05;0.30;;;;;;;15.18;64.92;100882.94;5070226;28;20109;-39
2021/11/29 10:51:47;;;;;;;0.80;0.40;;;;;;;15.22;65.12;100884.75;5071101;28;20152;-34
2021/11/29 10:54:18;;;;;;;1.35;0.32;;;;;;;15.13;64.49;100893.19;5071101;28;20052;-36
2021/11/29 10:56:47;;;;;;;1.90;0.40;;;;;;;14.86;64.71;100892.63;5070594;28;20048;-35
2021/11/29 10:59:17;;;;;;;2.20;0.32;;;;;;;14.51;65.95;100898.16;5070683;28;20079;-38
2021/11/29 11:01:48;;;;;;;1.27;0.47;;;;;;;14.06;66.66;100903.88;5059732;28;20067;-33
2021/11/29 11:04:18;;;;;;;1.38;0.30;;;;;;;13.60;68.38;100909.81;5070156;28;20044;-39
2021/11/29 11:06:49;;;;;;;0.77;0.30;;;;;;;13.22;69.81;100914.94;5071327;28;20056;-41
2021/11/29 11:09:22;;;;;;;1.20;0.38;;;;;;;12.90;71.06;100901.09;5070094;28;20079;-36
2021/11/29 11:11:52;;;;;;;1.02;0.30;;;;;;;12.59;72.41;100910.13;5071303;28;20393;-39
2021/11/29 11:14:22;;;;;;;1.13;0.35;;;;;;;12.29;73.69;100906.00;5070831;28;20139;-33
2021/11/29 11:16:54;;;;;;;2.08;0.50;;;;;;;12.03;74.46;100908.44;5066998;28;20040;-36
2021/11/29 11:19:25;;;;;;;0.70;0.20;;;;;;;11.77;75.20;100910.03;5070804;28;20128;-30
2021/11/29 11:21:54;;;;;;;0.80;0.38;;;;;;;11.44;74.95;100913.91;5070329;28;20075;-33
2021/11/29 11:24:30;;;;;;;1.13;0.35;;;;;;;11.15;76.02;100916.88;5070238;28;20087;-34
2021/11/29 11:26:59;;;;;;;1.42;0.50;;;;;;;10.93;77.19;100923.03;5070899;28;20071;-37
2021/11/29 11:29:46;;;;;;;2.83;0.80;;;;;;;10.72;78.11;100922.47;5070744;28;20062;-33
2021/11/29 11:32:27;;;;;;;2.35;0.57;;;;;;;10.50;79.17;100923.03;5069839;28;20140;-33
2021/11/29 11:34:58;;;;;;;1.98;0.40;;;;;;;10.34;79.96;100921.56;5051660;28;20079;-36
2021/11/29 11:37:28;;;;;;;1.00;0.35;;;;;;;10.23;80.72;100915.25;5069872;28;20132;-40